Time;durP1;ratioP1;P1;durP2;ratioP2;P2;SDS_P1;SDS_P2;PMS_P1;PMS_P2;Temp;Humidity;BMP_temperature;BMP_pressure;BME280_temperature;BME280_humidity;BME280_pressure;Samples;Min_cycle;Max_cycle;Signal;HPM_P1;HPM_P2
2023/07/11 00:01:37;;;;;;;10.33;7.33;;;;;;;-141.97;48.64;47413.38;4993642;28;20223;-80
2023/07/11 00:04:03;;;;;;;8.87;7.20;;;;;;;-141.97;48.70;47444.13;4993449;28;20608;-81
2023/07/11 00:06:28;;;;;;;8.53;7.40;;;;;;;-141.97;48.79;47419.13;4994112;28;20231;-80
2023/07/11 00:08:54;;;;;;;8.37;7.57;;;;;;;-141.97;48.44;47421.06;4993662;28;20251;-80
2023/07/11 00:11:20;;;;;;;9.90;6.87;;;;;;;-141.97;48.35;47446.03;4992149;28;20555;-80
2023/07/11 00:13:49;;;;;;;8.50;7.10;;;;;;;-141.97;48.35;47419.13;5008589;28;20249;-80
2023/07/11 00:16:16;;;;;;;9.07;7.27;;;;;;;-141.97;47.95;47415.28;5009721;28;20168;-79
2023/07/11 00:18:41;;;;;;;9.03;7.47;;;;;;;-141.97;48.10;47376.84;5000922;28;20198;-80
2023/07/11 00:21:07;;;;;;;9.37;7.37;;;;;;;-141.97;47.89;47432.59;4994031;28;20195;-80
2023/07/11 00:23:33;;;;;;;11.90;7.83;;;;;;;-141.97;47.87;47444.13;4994575;28;20178;-80
2023/07/11 00:25:58;;;;;;;9.23;7.70;;;;;;;-141.97;47.64;47405.69;4993558;28;20171;-80
2023/07/11 00:28:24;;;;;;;9.50;7.43;;;;;;;-141.97;46.98;47407.59;4993528;28;20175;-80
2023/07/11 00:30:49;;;;;;;9.17;7.50;;;;;;;-141.97;46.66;47430.66;4993912;28;20164;-81
2023/07/11 00:33:15;;;;;;;9.07;7.33;;;;;;;-141.97;46.43;47403.75;4993977;28;20211;-81
2023/07/11 00:35:44;;;;;;;8.47;7.53;;;;;;;-141.97;46.36;47449.88;4993873;28;20171;-81
2023/07/11 00:38:09;;;;;;;11.43;8.23;;;;;;;-141.97;45.94;47403.75;4993412;28;20287;-81
2023/07/11 00:40:42;;;;;;;9.67;7.47;;;;;;;-141.97;45.78;47422.97;4995546;28;20192;-81
2023/07/11 00:43:13;;;;;;;8.13;7.30;;;;;;;-141.97;45.17;47396.06;4992866;28;20201;-80
2023/07/11 00:46:15;;;;;;;8.80;7.10;;;;;;;-141.97;44.74;47426.81;5008155;28;20262;-80
2023/07/11 00:48:51;;;;;;;7.60;6.77;;;;;;;-141.97;44.27;47432.59;4993860;28;20185;-81
2023/07/11 00:51:22;;;;;;;8.07;7.20;;;;;;;-141.97;43.50;47415.28;4993036;28;20165;-79
2023/07/11 00:53:48;;;;;;;10.57;7.20;;;;;;;-141.97;43.23;47653.63;4993080;28;20178;-79
2023/07/11 00:56:20;;;;;;;8.60;7.10;;;;;;;-141.97;42.96;47451.81;4992604;28;20217;-79
2023/07/11 00:58:46;;;;;;;11.13;7.40;;;;;;;-141.97;43.16;47434.50;4992948;28;20213;-79
2023/07/11 01:01:13;;;;;;;9.23;6.90;;;;;;;-141.97;43.29;47411.44;4992711;28;20194;-79
2023/07/11 01:03:39;;;;;;;8.73;6.90;;;;;;;-141.97;43.57;47422.97;4991549;28;20171;-79
2023/07/11 01:06:13;;;;;;;7.43;6.73;;;;;;;-141.97;43.96;47419.13;4999848;28;20326;-80
2023/07/11 01:08:39;;;;;;;8.40;7.20;;;;;;;-141.97;44.61;47388.38;5015317;28;20168;-79
2023/07/11 01:11:05;;;;;;;9.43;7.10;;;;;;;-141.97;44.71;47428.75;5009811;28;20171;-80
2023/07/11 01:13:30;;;;;;;9.60;7.03;;;;;;;-141.97;45.03;47467.19;4992330;28;20186;-79
2023/07/11 01:15:56;;;;;;;8.37;7.13;;;;;;;-141.97;45.21;47419.13;4992735;28;20603;-80
2023/07/11 01:18:21;;;;;;;9.17;7.43;;;;;;;-141.97;45.94;47384.53;4992329;28;20199;-80
2023/07/11 01:20:47;;;;;;;10.23;7.50;;;;;;;-141.97;46.26;47421.06;4992244;28;20545;-80
2023/07/11 01:23:12;;;;;;;8.57;7.30;;;;;;;-141.97;46.39;47407.59;4992249;28;20261;-80
2023/07/11 01:25:38;;;;;;;11.67;7.70;;;;;;;-141.97;46.39;47424.91;4992147;28;20172;-79
2023/07/11 01:28:04;;;;;;;9.37;7.43;;;;;;;-141.97;46.80;47407.59;4992735;28;20168;-79
2023/07/11 01:30:29;;;;;;;11.33;7.73;;;;;;;-141.97;46.85;47426.81;4992977;28;20717;-79
2023/07/11 01:32:55;;;;;;;10.00;7.83;;;;;;;-141.97;47.01;47446.03;4992139;28;20243;-80
2023/07/11 01:35:20;;;;;;;9.57;7.70;;;;;;;-141.97;46.81;47457.56;4993119;28;20175;-80
2023/07/11 01:37:46;;;;;;;9.77;7.53;;;;;;;-141.97;47.22;47396.06;4992187;28;20558;-80
2023/07/11 01:40:12;;;;;;;9.67;7.63;;;;;;;-141.97;47.17;47442.19;4992156;28;20246;-80
2023/07/11 01:42:38;;;;;;;9.77;7.73;;;;;;;-141.97;47.23;47422.97;4992261;28;20686;-80
2023/07/11 01:45:04;;;;;;;9.03;7.63;;;;;;;-141.97;47.55;47434.50;4992717;28;20167;-79
2023/07/11 01:47:30;;;;;;;10.40;8.03;;;;;;;-141.97;47.89;47407.59;4992751;28;20301;-80
2023/07/11 01:49:56;;;;;;;9.63;8.43;;;;;;;-141.97;48.15;47469.09;4993046;28;20215;-79
2023/07/11 01:52:23;;;;;;;9.97;8.60;;;;;;;-141.97;48.34;47499.84;4992188;28;20159;-79
2023/07/11 01:54:49;;;;;;;9.23;8.23;;;;;;;-141.97;48.48;47357.63;4991772;28;20175;-79
2023/07/11 01:57:15;;;;;;;9.43;8.03;;;;;;;-141.97;48.51;47434.50;4992282;28;20172;-79
2023/07/11 01:59:41;;;;;;;9.53;7.90;;;;;;;-141.97;48.66;47453.72;4992228;28;20557;-79
2023/07/11 02:02:07;;;;;;;9.17;7.90;;;;;;;-141.97;49.07;47434.50;4991506;28;20190;-81
2023/07/11 02:04:34;;;;;;;10.37;8.00;;;;;;;-141.97;48.99;47422.97;4992093;28;20186;-81
2023/07/11 02:07:00;;;;;;;11.17;8.13;;;;;;;-141.97;49.31;47430.66;4992014;28;20262;-81
2023/07/11 02:09:25;;;;;;;9.50;7.80;;;;;;;-141.97;49.19;47465.25;4995827;28;20191;-81
2023/07/11 02:11:51;;;;;;;9.90;8.20;;;;;;;-141.97;49.60;47380.69;4993551;28;20277;-81
2023/07/11 02:14:20;;;;;;;9.20;7.87;;;;;;;-141.97;49.94;47459.50;4992359;28;20209;-81
2023/07/11 02:16:50;;;;;;;12.27;7.97;;;;;;;-141.97;49.69;47430.66;4992169;28;20171;-81
2023/07/11 02:19:17;;;;;;;11.10;8.17;;;;;;;-141.97;49.43;47471.03;4991947;28;20191;-81
2023/07/11 02:21:43;;;;;;;11.40;8.90;;;;;;;-141.97;49.27;47430.66;4992875;28;20258;-81
2023/07/11 02:24:10;;;;;;;11.77;8.33;;;;;;;-141.97;48.93;47419.13;5008492;28;20179;-81
2023/07/11 02:26:36;;;;;;;10.00;8.37;;;;;;;-141.97;48.62;47453.72;4993969;28;20168;-81
2023/07/11 02:29:03;;;;;;;11.10;8.70;;;;;;;-141.97;48.57;47434.50;4995742;28;20163;-81
2023/07/11 02:31:30;;;;;;;10.77;8.20;;;;;;;-141.97;48.38;47415.28;4995980;28;20174;-81
2023/07/11 02:33:56;;;;;;;10.73;8.80;;;;;;;-141.97;48.37;47467.19;5011009;28;20178;-81
2023/07/11 02:36:21;;;;;;;8.57;7.67;;;;;;;-141.97;48.20;47453.72;4995654;28;20167;-81
2023/07/11 02:38:47;;;;;;;10.83;7.93;;;;;;;-141.97;48.37;47472.94;4995952;28;20167;-81
2023/07/11 02:41:12;;;;;;;10.30;8.00;;;;;;;-141.97;48.35;47384.53;4995330;28;20198;-81
2023/07/11 02:43:37;;;;;;;8.77;7.73;;;;;;;-141.97;48.50;47484.47;4995642;28;20254;-81
2023/07/11 02:46:03;;;;;;;10.63;7.90;;;;;;;-141.97;48.55;47436.44;4995285;28;20244;-80
2023/07/11 02:48:29;;;;;;;9.37;7.87;;;;;;;-141.97;48.96;47417.22;4998869;28;20164;-81
2023/07/11 02:50:55;;;;;;;8.40;7.50;;;;;;;-141.97;49.36;47438.34;4998812;28;20167;-80
2023/07/11 02:53:20;;;;;;;11.40;8.10;;;;;;;-141.97;49.39;47453.72;4996228;28;20171;-80
2023/07/11 02:55:46;;;;;;;12.20;8.43;;;;;;;-141.97;49.33;47459.50;4995161;28;20172;-81
2023/07/11 02:58:11;;;;;;;11.90;8.40;;;;;;;-141.97;48.99;47538.28;4995276;28;20171;-81
2023/07/11 03:00:37;;;;;;;12.70;7.93;;;;;;;-141.97;49.06;47449.88;4995535;28;20619;-81
2023/07/11 03:03:03;;;;;;;12.50;8.00;;;;;;;-141.97;49.40;47432.59;5010072;28;20718;-81
2023/07/11 03:05:29;;;;;;;10.03;8.13;;;;;;;-141.97;49.79;47432.59;5010303;28;20214;-81
2023/07/11 03:07:54;;;;;;;9.37;8.13;;;;;;;-141.97;50.23;47455.66;4994451;28;20219;-81
2023/07/11 03:10:20;;;;;;;9.57;8.10;;;;;;;-141.97;50.73;47471.03;4994905;28;20202;-81
2023/07/11 03:12:45;;;;;;;10.47;8.63;;;;;;;-141.97;51.03;47444.13;4994474;28;20160;-81
2023/07/11 03:15:10;;;;;;;10.30;7.80;;;;;;;-141.97;51.11;47472.94;4994602;28;20172;-81
2023/07/11 03:17:36;;;;;;;11.27;8.30;;;;;;;-141.97;51.28;47428.75;4994972;28;20174;-81
2023/07/11 03:20:02;;;;;;;14.43;8.70;;;;;;;-141.97;51.27;47432.59;4994783;28;20187;-81
2023/07/11 03:22:28;;;;;;;10.97;8.43;;;;;;;-141.97;51.42;47476.78;4995097;28;20536;-81
2023/07/11 03:24:53;;;;;;;12.20;8.60;;;;;;;-141.97;51.31;47471.03;4994487;28;20259;-81
2023/07/11 03:27:19;;;;;;;12.13;8.40;;;;;;;-141.97;50.99;47611.34;4994470;28;20168;-81
2023/07/11 03:29:44;;;;;;;10.30;8.07;;;;;;;-141.97;51.13;47467.19;4994490;28;20178;-81
2023/07/11 03:32:10;;;;;;;12.57;8.33;;;;;;;-141.97;50.94;47422.97;5008936;28;20144;-81
2023/07/11 03:34:36;;;;;;;9.77;8.43;;;;;;;-141.97;50.81;47424.91;5017407;28;20190;-80
2023/07/11 03:37:02;;;;;;;13.50;8.53;;;;;;;-141.97;50.72;47453.72;5010594;28;20175;-81
2023/07/11 03:39:27;;;;;;;13.07;9.10;;;;;;;-141.97;50.45;47453.72;4995111;28;20547;-80
2023/07/11 03:41:52;;;;;;;11.13;8.27;;;;;;;-141.97;50.14;47457.56;4993971;28;20195;-82
2023/07/11 03:44:18;;;;;;;10.97;9.00;;;;;;;-141.97;49.91;47472.94;4994263;28;20250;-81
2023/07/11 03:46:43;;;;;;;12.93;9.13;;;;;;;-141.97;49.78;47426.81;4993989;28;20172;-80
2023/07/11 03:49:09;;;;;;;12.63;9.13;;;;;;;-141.97;49.74;47455.66;4993766;28;20617;-80
2023/07/11 03:51:35;;;;;;;11.93;9.47;;;;;;;-141.97;49.44;47440.28;4992768;28;20156;-80
2023/07/11 03:54:00;;;;;;;11.83;8.57;;;;;;;-141.97;49.02;47447.97;4994821;28;20168;-80
2023/07/11 03:56:27;;;;;;;11.90;9.10;;;;;;;-141.97;49.11;47449.88;4994349;28;20187;-81
2023/07/11 03:58:53;;;;;;;13.13;8.57;;;;;;;-141.97;48.85;47413.38;4994063;28;20168;-81
2023/07/11 04:01:18;;;;;;;10.70;8.10;;;;;;;-141.97;48.38;47409.53;4994134;28;20195;-81
2023/07/11 04:03:44;;;;;;;10.50;8.10;;;;;;;-141.97;48.35;47482.56;4993990;28;20163;-81
2023/07/11 04:06:09;;;;;;;11.10;8.53;;;;;;;-141.97;48.11;47453.72;4994388;28;20237;-81
2023/07/11 04:08:35;;;;;;;13.43;8.57;;;;;;;-141.97;48.23;47415.28;4994624;28;20158;-81
2023/07/11 04:11:00;;;;;;;10.10;8.07;;;;;;;-141.97;48.53;47419.13;4994413;28;20171;-81
2023/07/11 04:13:26;;;;;;;10.33;8.33;;;;;;;-141.97;48.14;47465.25;4993754;28;20171;-81
2023/07/11 04:15:51;;;;;;;11.60;8.47;;;;;;;-141.97;48.09;47430.66;4994689;28;20723;-81
2023/07/11 04:18:17;;;;;;;9.13;8.10;;;;;;;-141.97;48.05;47422.97;4993996;28;20185;-81
2023/07/11 04:20:42;;;;;;;11.10;8.70;;;;;;;-141.97;47.83;47444.13;4992284;28;20643;-81
2023/07/11 04:23:08;;;;;;;9.57;8.30;;;;;;;-141.97;47.66;47634.41;4994223;28;20190;-81
2023/07/11 04:25:33;;;;;;;13.67;8.90;;;;;;;-141.97;47.67;47426.81;4991957;28;20190;-79
2023/07/11 04:27:58;;;;;;;11.80;8.53;;;;;;;-141.97;47.53;47453.72;5014217;28;20674;-79
2023/07/11 04:30:24;;;;;;;11.90;9.23;;;;;;;-141.97;47.29;47419.13;5012534;28;20175;-79
2023/07/11 04:32:51;;;;;;;9.80;8.07;;;;;;;-141.97;47.17;47434.50;5016870;28;20581;-79
2023/07/11 04:35:17;;;;;;;10.37;8.00;;;;;;;-141.97;47.11;47415.28;5011615;28;20281;-80
2023/07/11 04:37:43;;;;;;;10.20;8.20;;;;;;;-141.97;46.73;47463.34;5012553;28;20163;-80
2023/07/11 04:40:10;;;;;;;12.30;8.07;;;;;;;-141.97;46.61;47424.91;5012576;28;20233;-79
2023/07/11 04:42:35;;;;;;;10.17;8.10;;;;;;;-141.97;46.45;47428.75;5025239;28;20186;-79
2023/07/11 04:45:02;;;;;;;11.73;8.83;;;;;;;-141.97;46.34;47434.50;5012284;28;20282;-79
2023/07/11 04:47:28;;;;;;;13.37;8.37;;;;;;;-141.97;46.14;47451.81;5012575;28;20189;-79
2023/07/11 04:49:53;;;;;;;13.63;9.43;;;;;;;-141.97;45.86;47403.75;5018822;28;20626;-79
2023/07/11 04:52:18;;;;;;;10.30;8.47;;;;;;;-141.97;45.85;47419.13;5014769;28;20186;-79
2023/07/11 04:54:44;;;;;;;10.77;8.80;;;;;;;-141.97;45.70;47447.97;5012436;28;20216;-80
2023/07/11 04:57:10;;;;;;;9.37;8.13;;;;;;;-141.97;45.25;47440.28;5016471;28;20641;-80
2023/07/11 04:59:35;;;;;;;10.67;8.63;;;;;;;-141.97;45.04;47438.34;5032523;28;20162;-80
2023/07/11 05:02:01;;;;;;;13.47;8.03;;;;;;;-141.97;45.11;47417.22;5031832;28;20198;-80
2023/07/11 05:04:26;;;;;;;12.07;8.30;;;;;;;-141.97;44.92;47421.06;5011990;28;20175;-80
2023/07/11 05:06:52;;;;;;;12.73;8.10;;;;;;;-141.97;44.81;47422.97;5011932;28;20297;-81
2023/07/11 05:09:17;;;;;;;15.03;8.73;;;;;;;-141.97;44.42;47440.28;5012218;28;20182;-80
2023/07/11 05:11:43;;;;;;;13.43;8.10;;;;;;;-141.97;44.19;47373.00;4994478;28;20187;-79
2023/07/11 05:14:09;;;;;;;11.23;8.37;;;;;;;-141.97;44.15;47376.84;5011650;28;20170;-79
2023/07/11 05:16:34;;;;;;;17.50;7.80;;;;;;;-141.97;43.81;47449.88;5012256;28;20274;-80
2023/07/11 05:19:00;;;;;;;14.90;8.33;;;;;;;-141.97;43.58;47409.53;5013530;28;20632;-80
2023/07/11 05:21:27;;;;;;;11.23;7.90;;;;;;;-141.97;43.50;47536.38;5018060;28;20194;-81
2023/07/11 05:23:55;;;;;;;13.37;8.47;;;;;;;-141.97;42.92;47434.50;5011752;28;20170;-80
2023/07/11 05:26:21;;;;;;;13.27;8.43;;;;;;;-141.97;42.84;47430.66;5011972;28;20171;-80
2023/07/11 05:28:47;;;;;;;32.60;9.70;;;;;;;-141.97;41.78;47415.28;4994966;28;20242;-80
2023/07/11 05:31:13;;;;;;;15.00;8.13;;;;;;;-141.97;41.67;47378.78;5010795;28;20193;-81
2023/07/11 05:33:39;;;;;;;14.20;8.23;;;;;;;-141.97;41.60;47411.44;5011590;28;20167;-83
2023/07/11 05:36:13;;;;;;;10.73;8.17;;;;;;;-141.97;41.53;47417.22;5029037;28;20257;-81
2023/07/11 05:38:39;;;;;;;16.40;9.33;;;;;;;-141.97;41.63;47438.34;5025174;28;20187;-80
2023/07/11 05:41:04;;;;;;;14.33;8.20;;;;;;;-141.97;41.04;47394.16;5008482;28;20193;-80
2023/07/11 05:43:29;;;;;;;9.30;8.30;;;;;;;-141.97;41.00;47363.41;5001820;28;20666;-80
2023/07/11 05:45:55;;;;;;;15.47;8.40;;;;;;;-141.97;40.35;47426.81;5005078;28;20183;-80
2023/07/11 05:48:20;;;;;;;10.10;7.70;;;;;;;-141.97;39.59;47415.28;5007751;28;20324;-80
2023/07/11 05:50:59;;;;;;;10.93;7.70;;;;;;;-141.97;40.02;47396.06;5012317;28;20291;-80
2023/07/11 05:53:26;;;;;;;12.30;8.15;;;;;;;-141.97;39.85;47411.44;5018884;28;20175;-80
2023/07/11 05:55:52;;;;;;;16.90;8.45;;;;;;;-141.97;40.30;47396.06;5031180;28;20179;-80
2023/07/11 05:58:17;;;;;;;11.02;8.15;;;;;;;-141.97;39.84;47328.81;5041988;28;20176;-78
2023/07/11 06:00:43;;;;;;;17.05;8.25;;;;;;;-141.97;39.85;47363.41;5030074;28;20618;-80
2023/07/11 06:03:08;;;;;;;11.13;8.07;;;;;;;-141.97;39.25;47378.78;5025048;28;20560;-79
2023/07/11 06:05:34;;;;;;;12.80;7.72;;;;;;;-141.97;39.20;47390.31;5014865;28;20208;-79
2023/07/11 06:07:59;;;;;;;9.68;7.72;;;;;;;-141.97;39.57;47469.09;5014385;28;20227;-80
2023/07/11 06:10:25;;;;;;;8.82;7.65;;;;;;;-141.97;38.93;47413.38;5014517;28;20169;-79
2023/07/11 06:12:50;;;;;;;10.57;7.90;;;;;;;-141.97;39.19;47394.16;5014445;28;20316;-80
2023/07/11 06:15:15;;;;;;;9.38;8.13;;;;;;;-141.97;39.25;47405.69;5014174;28;20267;-79
2023/07/11 06:17:41;;;;;;;10.25;8.57;;;;;;;-141.97;38.93;47374.94;5007599;28;20179;-80
2023/07/11 06:20:09;;;;;;;10.32;8.07;;;;;;;-141.97;38.90;47338.41;5013486;28;20636;-80
2023/07/11 06:22:35;;;;;;;10.27;8.38;;;;;;;-141.97;38.87;47380.69;5014200;28;20186;-79
2023/07/11 06:25:01;;;;;;;12.65;8.45;;;;;;;-141.97;38.62;47330.72;5013921;28;20168;-79
2023/07/11 06:27:26;;;;;;;10.63;8.25;;;;;;;-141.97;38.79;47359.56;5012333;28;20174;-80
2023/07/11 06:29:51;;;;;;;13.25;8.70;;;;;;;-141.97;39.25;47369.16;5014146;28;20639;-79
2023/07/11 06:32:17;;;;;;;14.27;8.60;;;;;;;-141.97;38.85;47369.16;4996629;28;20626;-80
2023/07/11 06:34:42;;;;;;;10.43;8.90;;;;;;;-141.97;38.64;47401.84;5015537;28;20270;-79
2023/07/11 06:37:08;;;;;;;13.73;9.10;;;;;;;-141.97;38.55;47296.13;5014817;28;20219;-80
2023/07/11 06:39:33;;;;;;;11.75;8.73;;;;;;;-141.97;39.12;47403.75;5030990;28;20651;-79
2023/07/11 06:41:59;;;;;;;11.05;8.00;;;;;;;-141.97;38.76;47353.78;5033596;28;20199;-80
2023/07/11 06:44:24;;;;;;;14.65;8.15;;;;;;;-141.97;38.48;47405.69;5020982;28;20192;-80
2023/07/11 06:46:49;;;;;;;11.75;8.27;;;;;;;-141.97;38.82;47353.78;5014291;28;20185;-79
2023/07/11 06:49:15;;;;;;;12.27;8.18;;;;;;;-141.97;38.15;47319.19;5013749;28;20192;-81
2023/07/11 06:51:40;;;;;;;9.35;8.40;;;;;;;-141.97;38.06;47357.63;5017650;28;20167;-79
2023/07/11 06:54:06;;;;;;;10.25;8.20;;;;;;;-141.97;38.23;47330.72;5001507;28;20274;-79
2023/07/11 06:56:33;;;;;;;9.45;8.23;;;;;;;-141.97;38.23;47378.78;5017213;28;20184;-81
2023/07/11 06:59:01;;;;;;;10.77;8.30;;;;;;;-141.97;37.52;47340.34;5023069;28;20161;-82
2023/07/11 07:01:27;;;;;;;12.68;8.60;;;;;;;-141.97;37.39;47365.31;5025819;28;20217;-81
2023/07/11 07:03:53;;;;;;;9.25;8.35;;;;;;;-141.97;37.47;47369.16;5008924;28;20185;-81
2023/07/11 07:06:19;;;;;;;11.57;8.82;;;;;;;-141.97;37.51;47326.88;5014494;28;20310;-79
2023/07/11 07:08:45;;;;;;;12.57;9.00;;;;;;;-141.97;37.60;47330.72;5010879;28;20196;-79
2023/07/11 07:11:10;;;;;;;13.68;8.38;;;;;;;-141.97;36.96;47365.31;5013441;28;20190;-79
2023/07/11 07:13:36;;;;;;;14.45;8.10;;;;;;;-141.97;37.19;47346.09;5020737;28;20670;-80
2023/07/11 07:16:03;;;;;;;12.02;8.52;;;;;;;-141.97;36.97;47349.94;5033972;28;20197;-80
2023/07/11 07:18:32;;;;;;;12.45;8.50;;;;;;;-141.97;36.76;47349.94;5029894;28;20183;-79
2023/07/11 07:20:58;;;;;;;13.10;8.55;;;;;;;-141.97;36.86;47353.78;5014188;28;20220;-80
2023/07/11 07:23:25;;;;;;;15.75;8.02;;;;;;;-141.97;36.63;47357.63;5013827;28;20680;-79
2023/07/11 07:25:54;;;;;;;12.15;8.30;;;;;;;-141.97;36.90;47309.59;5013929;28;20294;-81
2023/07/11 07:28:20;;;;;;;11.85;8.55;;;;;;;-141.97;36.66;47342.25;5013526;28;20179;-80
2023/07/11 07:30:47;;;;;;;12.13;8.25;;;;;;;-141.97;36.49;47323.03;5011062;28;20213;-79
2023/07/11 07:33:13;;;;;;;11.80;8.27;;;;;;;-141.97;36.15;47311.50;4995657;28;20314;-81
2023/07/11 07:35:40;;;;;;;14.23;7.97;;;;;;;-141.97;35.75;47299.97;5012365;28;20217;-81
2023/07/11 07:38:05;;;;;;;12.93;9.57;;;;;;;-141.97;35.39;47311.50;5011276;28;20234;-81
2023/07/11 07:40:30;;;;;;;12.88;8.18;;;;;;;-141.97;34.98;47382.63;5011427;28;20614;-79
2023/07/11 07:42:56;;;;;;;10.30;8.55;;;;;;;-141.97;35.20;47303.81;5021885;28;20200;-80
2023/07/11 07:45:21;;;;;;;16.65;8.60;;;;;;;-141.97;35.00;47317.28;5032690;28;20181;-80
2023/07/11 07:47:47;;;;;;;13.48;8.82;;;;;;;-141.97;35.02;47353.78;5009331;28;20287;-80
2023/07/11 07:50:12;;;;;;;10.70;8.52;;;;;;;-141.97;34.47;47328.81;5013210;28;20162;-81
2023/07/11 07:52:37;;;;;;;12.18;7.78;;;;;;;-141.97;34.38;47303.81;5020523;28;20193;-81
2023/07/11 07:55:03;;;;;;;11.32;7.97;;;;;;;-141.97;34.40;47334.56;5014020;28;20613;-82
2023/07/11 07:57:29;;;;;;;11.65;7.82;;;;;;;-141.97;34.50;47294.22;5012973;28;20162;-80
2023/07/11 07:59:54;;;;;;;10.30;8.23;;;;;;;-141.97;34.63;47338.41;5011459;28;20257;-81
2023/07/11 08:02:19;;;;;;;13.45;8.13;;;;;;;-141.97;34.31;47303.81;5012433;28;20204;-81
2023/07/11 08:04:47;;;;;;;10.93;7.95;;;;;;;-141.97;33.64;47253.84;4994899;28;20181;-81
2023/07/11 08:07:13;;;;;;;11.48;7.97;;;;;;;-141.97;34.03;47319.19;5012691;28;20230;-81
2023/07/11 08:09:38;;;;;;;10.23;8.30;;;;;;;-141.97;33.81;47296.13;5012045;28;20264;-81
2023/07/11 08:12:09;;;;;;;9.85;7.50;;;;;;;-141.97;33.21;47307.66;5012273;28;20256;-78
2023/07/11 08:14:39;;;;;;;12.73;7.93;;;;;;;-141.97;32.42;47299.97;5013996;28;20185;-80
2023/07/11 08:17:06;;;;;;;12.20;7.50;;;;;;;-141.97;32.06;47315.34;5013317;28;20170;-79
2023/07/11 08:19:32;;;;;;;9.07;7.75;;;;;;;-141.97;32.51;47226.94;5013651;28;20174;-79
2023/07/11 08:21:57;;;;;;;8.73;7.60;;;;;;;-141.97;32.67;47307.66;5013267;28;20758;-79
2023/07/11 08:24:23;;;;;;;8.65;7.35;;;;;;;-141.97;32.77;47288.44;5019712;28;20254;-80
2023/07/11 08:26:50;;;;;;;8.77;6.88;;;;;;;-141.97;32.47;47250.00;5036430;28;20232;-81
2023/07/11 08:29:15;;;;;;;8.52;7.60;;;;;;;-141.97;31.95;47269.22;5026921;28;20178;-80
2023/07/11 08:31:41;;;;;;;9.68;7.50;;;;;;;-141.97;31.96;47242.31;5023410;28;20181;-81
2023/07/11 08:34:06;;;;;;;12.95;7.97;;;;;;;-141.97;31.85;47303.81;5031718;28;20162;-80
2023/07/11 08:36:32;;;;;;;9.13;7.55;;;;;;;-141.97;32.31;47242.31;5033134;28;20252;-80
2023/07/11 08:38:57;;;;;;;14.65;7.85;;;;;;;-141.97;32.10;47298.06;5021561;28;20169;-81
2023/07/11 08:41:34;;;;;;;8.45;7.53;;;;;;;-141.97;32.25;47257.69;5013099;28;20167;-80
2023/07/11 08:44:12;;;;;;;7.90;7.10;;;;;;;-141.97;32.18;47284.59;5015230;28;20543;-81
2023/07/11 08:46:45;;;;;;;8.32;7.43;;;;;;;-141.97;31.76;47284.59;5018903;28;20634;-80
2023/07/11 08:49:21;;;;;;;9.90;7.60;;;;;;;-141.97;31.65;47261.53;4999017;28;20555;-81
2023/07/11 08:51:51;;;;;;;9.80;7.72;;;;;;;-141.97;31.36;47238.47;5017174;28;20167;-80
2023/07/11 08:54:30;;;;;;;8.07;7.13;;;;;;;-141.97;31.40;47228.88;5013695;28;20225;-80
2023/07/11 08:56:59;;;;;;;11.27;8.00;;;;;;;-141.97;30.98;47334.56;5014101;28;20171;-80
2023/07/11 08:59:41;;;;;;;14.85;7.60;;;;;;;-141.97;31.25;47284.59;5015755;28;20170;-81
2023/07/11 09:02:09;;;;;;;10.20;7.38;;;;;;;-141.97;30.96;47251.94;5012480;28;20264;-80
2023/07/11 09:04:46;;;;;;;13.25;7.78;;;;;;;-141.97;30.84;47261.53;5011424;28;20254;-80
2023/07/11 09:07:37;;;;;;;22.17;13.32;;;;;;;-141.97;30.86;47244.25;5011490;28;20608;-80
2023/07/11 09:10:17;;;;;;;24.25;16.35;;;;;;;-141.97;30.20;47223.09;5013239;28;20171;-80
2023/07/11 09:13:03;;;;;;;14.45;8.90;;;;;;;-141.97;30.57;47236.56;5013423;28;20162;-80
2023/07/11 09:15:41;;;;;;;9.40;7.63;;;;;;;-141.97;31.34;47250.00;5014321;28;20234;-81
2023/07/11 09:18:27;;;;;;;9.55;7.68;;;;;;;-141.97;30.96;47332.66;5012900;28;20622;-80
2023/07/11 09:21:34;;;;;;;10.82;7.60;;;;;;;-141.97;30.78;47225.03;4995463;28;20240;-80
2023/07/11 09:24:18;;;;;;;29.30;17.75;;;;;;;-141.97;31.28;47259.63;4990127;28;20801;-81
2023/07/11 09:26:49;;;;;;;13.50;9.00;;;;;;;-141.97;31.12;47198.09;4991025;28;20565;-81
2023/07/11 09:29:16;;;;;;;12.00;8.45;;;;;;;-141.97;30.69;47234.63;4990089;28;20195;-80
2023/07/11 09:31:52;;;;;;;8.07;6.82;;;;;;;-141.97;31.10;47246.16;4989543;28;20234;-80
2023/07/11 09:34:24;;;;;;;9.50;7.63;;;;;;;-141.97;30.89;47217.34;4975085;28;20190;-81
2023/07/11 09:36:51;;;;;;;15.20;9.73;;;;;;;-141.97;31.21;47240.41;4991297;28;20278;-80
2023/07/11 09:39:26;;;;;;;20.30;14.85;;;;;;;-141.97;30.65;47236.56;4990948;28;20188;-81
2023/07/11 09:42:04;;;;;;;16.95;10.73;;;;;;;-141.97;30.48;47251.94;4991101;28;20213;-81
2023/07/11 09:44:29;;;;;;;9.45;7.22;;;;;;;-141.97;30.34;47207.72;4991114;28;20167;-80
2023/07/11 09:46:55;;;;;;;13.48;8.13;;;;;;;-141.97;30.96;47230.78;5007232;28;20261;-78
2023/07/11 09:49:30;;;;;;;10.73;7.70;;;;;;;-141.97;30.50;47230.78;4992490;28;20186;-80
2023/07/11 09:51:59;;;;;;;8.07;7.28;;;;;;;-141.97;30.47;47182.75;4973823;28;20175;-78
2023/07/11 09:54:27;;;;;;;8.60;7.53;;;;;;;-141.97;30.92;47225.03;4990293;28;20194;-80
2023/07/11 09:56:53;;;;;;;15.77;8.70;;;;;;;-141.97;31.20;47226.94;4991668;28;20178;-80
2023/07/11 09:59:20;;;;;;;9.80;7.82;;;;;;;-141.97;31.14;47251.94;4989580;28;20173;-79
2023/07/11 10:01:51;;;;;;;13.10;10.20;;;;;;;-141.97;30.83;47234.63;5010839;28;20325;-80
2023/07/11 10:04:22;;;;;;;14.30;10.98;;;;;;;-141.97;30.61;47182.75;5011613;28;20213;-80
2023/07/11 10:06:57;;;;;;;15.48;10.80;;;;;;;-141.97;30.49;47221.19;5030997;28;20325;-80
2023/07/11 10:09:26;;;;;;;14.27;9.25;;;;;;;-141.97;30.45;47119.31;5007963;28;20173;-79
2023/07/11 10:11:53;;;;;;;14.95;8.60;;;;;;;-141.97;30.46;47186.59;5008710;28;20175;-79
2023/07/11 10:14:23;;;;;;;11.68;8.02;;;;;;;-141.97;31.29;47221.19;5010170;28;20182;-79
2023/07/11 10:16:48;;;;;;;13.57;10.25;;;;;;;-141.97;30.58;47196.19;5011214;28;20167;-80
2023/07/11 10:19:17;;;;;;;12.73;9.48;;;;;;;-141.97;31.12;47221.19;5012972;28;20295;-79
2023/07/11 10:21:46;;;;;;;10.27;8.57;;;;;;;-141.97;31.04;47230.78;5029369;28;20206;-79
2023/07/11 10:24:25;;;;;;;10.75;8.90;;;;;;;-141.97;31.31;47219.25;5018071;28;20210;-79
2023/07/11 10:27:09;;;;;;;13.15;8.55;;;;;;;-141.97;31.40;47242.31;5010862;28;20325;-79
2023/07/11 10:29:44;;;;;;;12.02;8.43;;;;;;;-141.97;31.58;47257.69;5010751;28;20174;-79
2023/07/11 10:32:17;;;;;;;24.25;19.58;;;;;;;-141.97;31.95;47225.03;5015610;28;20556;-79
2023/07/11 10:34:54;;;;;;;37.45;28.63;;;;;;;-141.97;31.41;47234.63;5010256;28;20544;-78
2023/07/11 10:37:41;;;;;;;13.65;9.82;;;;;;;-141.97;31.79;47261.53;5012129;28;20193;-86
2023/07/11 10:40:19;;;;;;;9.93;8.10;;;;;;;-141.97;31.32;47238.47;4995518;28;20182;-87
2023/07/11 10:42:44;;;;;;;14.75;8.75;;;;;;;-141.97;30.92;47246.16;5011068;28;20195;-84
2023/07/11 10:45:19;;;;;;;16.63;11.55;;;;;;;-141.97;31.05;47253.84;5011045;28;20182;-86
2023/07/11 10:47:59;;;;;;;11.68;7.90;;;;;;;-141.97;31.68;47223.09;5013521;28;20603;-87
2023/07/11 10:50:41;;;;;;;8.43;7.05;;;;;;;-141.97;31.66;47276.91;5030916;28;20178;-86
2023/07/11 10:53:31;;;;;;;14.68;8.00;;;;;;;-141.97;31.27;47219.25;5025181;28;20183;-88
2023/07/11 10:56:13;;;;;;;16.20;11.52;;;;;;;-141.97;30.54;47217.34;5017533;28;20163;-87
2023/07/11 10:58:38;;;;;;;8.93;7.68;;;;;;;-141.97;31.20;47236.56;5014736;28;20178;-86
2023/07/11 11:01:24;;;;;;;14.32;11.77;;;;;;;-141.97;31.24;47223.09;5009958;28;20242;-86
2023/07/11 11:03:55;;;;;;;14.73;9.90;;;;;;;-141.97;30.28;47213.50;5014940;28;20162;-86
2023/07/11 11:06:50;;;;;;;18.00;10.55;;;;;;;-141.97;29.68;47226.94;4995520;28;20250;-84
2023/07/11 11:09:18;;;;;;;21.90;14.00;;;;;;;-141.97;30.58;47238.47;5005387;28;20269;-84
2023/07/11 11:12:15;;;;;;;20.30;14.40;;;;;;;-141.97;30.51;47207.72;5014656;28;20227;-83
2023/07/11 11:15:10;;;;;;;24.48;14.13;;;;;;;-141.97;30.19;47219.25;5014263;28;20171;-82
2023/07/11 11:18:17;;;;;;;10.23;8.45;;;;;;;-141.97;29.78;47219.25;5017735;28;20167;-81